sensor_id;sensor_type;location;lat;lon;timestamp;pressure;altitude;pressure_sealevel;temperature;humidity
81354;BME280;70810;52.038;8.524;2023-11-19T00:00:26;99609.38;;;7.70;99.18
81354;BME280;70810;52.038;8.524;2023-11-19T00:02:55;99603.88;;;7.73;99.55
81354;BME280;70810;52.038;8.524;2023-11-19T00:05:23;99604.84;;;7.72;99.34
81354;BME280;70810;52.038;8.524;2023-11-19T00:07:51;99601.88;;;7.78;99.45
81354;BME280;70810;52.038;8.524;2023-11-19T00:10:19;99601.72;;;7.81;99.79
81354;BME280;70810;52.038;8.524;2023-11-19T00:12:47;99599.69;;;7.87;99.57
81354;BME280;70810;52.038;8.524;2023-11-19T00:15:14;99603.28;;;7.85;99.55
81354;BME280;70810;52.038;8.524;2023-11-19T00:17:44;99602.22;;;7.90;99.52
81354;BME280;70810;52.038;8.524;2023-11-19T00:20:17;99608.28;;;7.93;100.00
81354;BME280;70810;52.038;8.524;2023-11-19T00:22:50;99600.97;;;7.97;100.00
81354;BME280;70810;52.038;8.524;2023-11-19T00:25:31;99594.72;;;7.98;100.00
81354;BME280;70810;52.038;8.524;2023-11-19T00:27:58;99597.13;;;8.02;100.00
81354;BME280;70810;52.038;8.524;2023-11-19T00:30:25;99578.50;;;8.01;99.92
81354;BME280;70810;52.038;8.524;2023-11-19T00:32:51;99578.00;;;8.12;99.97
81354;BME280;70810;52.038;8.524;2023-11-19T00:35:18;99575.31;;;8.12;99.05
81354;BME280;70810;52.038;8.524;2023-11-19T00:37:45;99571.63;;;8.14;99.64
81354;BME280;70810;52.038;8.524;2023-11-19T00:40:13;99566.19;;;8.16;99.55
81354;BME280;70810;52.038;8.524;2023-11-19T00:42:42;99559.06;;;8.16;100.00
81354;BME280;70810;52.038;8.524;2023-11-19T00:45:09;99563.06;;;8.25;100.00
81354;BME280;70810;52.038;8.524;2023-11-19T00:47:38;99560.34;;;8.27;99.72
81354;BME280;70810;52.038;8.524;2023-11-19T00:50:06;99556.63;;;8.29;99.64
81354;BME280;70810;52.038;8.524;2023-11-19T00:52:34;99562.53;;;8.36;100.00
81354;BME280;70810;52.038;8.524;2023-11-19T00:55:02;99569.53;;;8.38;99.71
81354;BME280;70810;52.038;8.524;2023-11-19T00:57:29;99532.19;;;8.37;100.00
81354;BME280;70810;52.038;8.524;2023-11-19T00:59:59;99544.53;;;8.39;100.00
81354;BME280;70810;52.038;8.524;2023-11-19T01:02:26;99541.34;;;8.50;100.00
81354;BME280;70810;52.038;8.524;2023-11-19T01:04:53;99528.75;;;8.52;99.78
81354;BME280;70810;52.038;8.524;2023-11-19T01:07:21;99532.91;;;8.58;99.77
81354;BME280;70810;52.038;8.524;2023-11-19T01:09:49;99528.41;;;8.58;100.00
81354;BME280;70810;52.038;8.524;2023-11-19T01:12:16;99519.47;;;8.59;99.51
81354;BME280;70810;52.038;8.524;2023-11-19T01:14:43;99528.34;;;8.60;100.00
81354;BME280;70810;52.038;8.524;2023-11-19T01:17:11;99527.25;;;8.64;100.00
81354;BME280;70810;52.038;8.524;2023-11-19T01:19:41;99522.75;;;8.65;99.70
81354;BME280;70810;52.038;8.524;2023-11-19T01:22:09;99519.91;;;8.68;99.79
81354;BME280;70810;52.038;8.524;2023-11-19T01:24:35;99523.22;;;8.73;99.89
81354;BME280;70810;52.038;8.524;2023-11-19T01:27:02;99522.25;;;8.74;99.69
81354;BME280;70810;52.038;8.524;2023-11-19T01:29:29;99515.03;;;8.76;99.70
81354;BME280;70810;52.038;8.524;2023-11-19T01:31:56;99504.34;;;8.76;99.94
81354;BME280;70810;52.038;8.524;2023-11-19T01:34:24;99522.63;;;8.84;100.00
81354;BME280;70810;52.038;8.524;2023-11-19T01:36:51;99504.69;;;8.86;99.67
81354;BME280;70810;52.038;8.524;2023-11-19T01:39:18;99502.88;;;8.86;100.00
81354;BME280;70810;52.038;8.524;2023-11-19T01:41:47;99498.31;;;8.88;99.97
81354;BME280;70810;52.038;8.524;2023-11-19T01:44:14;99493.66;;;8.92;100.00
81354;BME280;70810;52.038;8.524;2023-11-19T01:46:45;99491.69;;;8.95;100.00
81354;BME280;70810;52.038;8.524;2023-11-19T01:49:14;99488.84;;;8.99;99.48
81354;BME280;70810;52.038;8.524;2023-11-19T01:51:49;99489.69;;;8.99;99.53
81354;BME280;70810;52.038;8.524;2023-11-19T01:54:20;99490.38;;;9.03;100.00
81354;BME280;70810;52.038;8.524;2023-11-19T01:56:47;99476.75;;;9.07;100.00
81354;BME280;70810;52.038;8.524;2023-11-19T01:59:14;99474.16;;;9.06;99.95
81354;BME280;70810;52.038;8.524;2023-11-19T02:01:41;99466.75;;;9.11;99.54
81354;BME280;70810;52.038;8.524;2023-11-19T02:04:08;99463.38;;;9.07;100.00
81354;BME280;70810;52.038;8.524;2023-11-19T02:06:37;99439.63;;;9.01;100.00
81354;BME280;70810;52.038;8.524;2023-11-19T02:09:07;99459.41;;;9.14;99.44
81354;BME280;70810;52.038;8.524;2023-11-19T02:11:35;99464.84;;;9.13;100.00
81354;BME280;70810;52.038;8.524;2023-11-19T02:14:02;99454.94;;;9.15;100.00
81354;BME280;70810;52.038;8.524;2023-11-19T02:16:30;99449.41;;;9.18;100.00
81354;BME280;70810;52.038;8.524;2023-11-19T02:18:56;99435.84;;;9.21;100.00
81354;BME280;70810;52.038;8.524;2023-11-19T02:21:23;99432.25;;;9.22;100.00
81354;BME280;70810;52.038;8.524;2023-11-19T02:23:51;99436.44;;;9.26;100.00
81354;BME280;70810;52.038;8.524;2023-11-19T02:26:24;99433.59;;;9.29;100.00
81354;BME280;70810;52.038;8.524;2023-11-19T02:28:56;99450.78;;;9.41;99.88
81354;BME280;70810;52.038;8.524;2023-11-19T02:31:23;99444.41;;;9.44;99.98
81354;BME280;70810;52.038;8.524;2023-11-19T02:33:52;99442.56;;;9.44;99.75
81354;BME280;70810;52.038;8.524;2023-11-19T02:36:20;99437.31;;;9.43;99.64
81354;BME280;70810;52.038;8.524;2023-11-19T02:38:47;99422.69;;;9.48;100.00
81354;BME280;70810;52.038;8.524;2023-11-19T02:41:14;99413.56;;;9.52;100.00
81354;BME280;70810;52.038;8.524;2023-11-19T02:43:41;99417.84;;;9.55;99.78
81354;BME280;70810;52.038;8.524;2023-11-19T02:46:09;99429.25;;;9.59;100.00
81354;BME280;70810;52.038;8.524;2023-11-19T02:48:36;99426.22;;;9.65;100.00
81354;BME280;70810;52.038;8.524;2023-11-19T02:51:04;99418.53;;;9.59;99.42
81354;BME280;70810;52.038;8.524;2023-11-19T02:53:34;99411.22;;;9.62;99.54
81354;BME280;70810;52.038;8.524;2023-11-19T02:56:03;99410.31;;;9.62;99.53
81354;BME280;70810;52.038;8.524;2023-11-19T02:58:37;99420.19;;;9.61;99.68
81354;BME280;70810;52.038;8.524;2023-11-19T03:01:04;99429.06;;;9.62;100.00
81354;BME280;70810;52.038;8.524;2023-11-19T03:03:39;99418.69;;;9.71;99.85
81354;BME280;70810;52.038;8.524;2023-11-19T03:06:08;99413.41;;;9.70;100.00
81354;BME280;70810;52.038;8.524;2023-11-19T03:08:35;99410.22;;;9.79;100.00
81354;BME280;70810;52.038;8.524;2023-11-19T03:11:03;99411.56;;;9.86;100.00
81354;BME280;70810;52.038;8.524;2023-11-19T03:13:30;99408.13;;;9.99;100.00
81354;BME280;70810;52.038;8.524;2023-11-19T03:15:57;99395.59;;;9.99;99.31
81354;BME280;70810;52.038;8.524;2023-11-19T03:18:23;99393.50;;;10.04;99.95
81354;BME280;70810;52.038;8.524;2023-11-19T03:20:52;99379.16;;;10.05;100.00
81354;BME280;70810;52.038;8.524;2023-11-19T03:23:19;99382.41;;;10.11;99.38
81354;BME280;70810;52.038;8.524;2023-11-19T03:25:45;99377.72;;;10.14;99.62
81354;BME280;70810;52.038;8.524;2023-11-19T03:28:12;99386.34;;;10.19;99.24
81354;BME280;70810;52.038;8.524;2023-11-19T03:30:39;99365.97;;;10.17;99.09
81354;BME280;70810;52.038;8.524;2023-11-19T03:33:06;99384.34;;;10.23;99.19
81354;BME280;70810;52.038;8.524;2023-11-19T03:35:33;99375.59;;;10.35;99.29
81354;BME280;70810;52.038;8.524;2023-11-19T03:38:01;99370.00;;;10.38;98.76
81354;BME280;70810;52.038;8.524;2023-11-19T03:40:28;99393.47;;;10.49;98.24
81354;BME280;70810;52.038;8.524;2023-11-19T03:42:57;99369.25;;;10.51;98.58
81354;BME280;70810;52.038;8.524;2023-11-19T03:45:25;99383.00;;;10.59;98.46
81354;BME280;70810;52.038;8.524;2023-11-19T03:47:52;99380.34;;;10.59;98.16
81354;BME280;70810;52.038;8.524;2023-11-19T03:50:18;99381.13;;;10.61;98.36
81354;BME280;70810;52.038;8.524;2023-11-19T03:52:46;99391.84;;;10.61;98.71
81354;BME280;70810;52.038;8.524;2023-11-19T03:55:15;99384.56;;;10.63;98.88
81354;BME280;70810;52.038;8.524;2023-11-19T03:57:41;99391.44;;;10.67;98.14
81354;BME280;70810;52.038;8.524;2023-11-19T04:00:09;99392.78;;;10.74;98.03
81354;BME280;70810;52.038;8.524;2023-11-19T04:02:39;99408.66;;;10.77;98.09
81354;BME280;70810;52.038;8.524;2023-11-19T04:05:06;99402.16;;;10.81;97.75
81354;BME280;70810;52.038;8.524;2023-11-19T04:07:33;99394.88;;;10.83;97.54
81354;BME280;70810;52.038;8.524;2023-11-19T04:10:01;99391.13;;;10.86;97.07
81354;BME280;70810;52.038;8.524;2023-11-19T04:12:29;99397.38;;;10.87;97.08
81354;BME280;70810;52.038;8.524;2023-11-19T04:14:56;99401.38;;;10.94;96.88
81354;BME280;70810;52.038;8.524;2023-11-19T04:17:23;99392.84;;;11.01;96.67
81354;BME280;70810;52.038;8.524;2023-11-19T04:19:50;99396.47;;;11.00;96.72
81354;BME280;70810;52.038;8.524;2023-11-19T04:22:17;99383.44;;;10.94;97.13
81354;BME280;70810;52.038;8.524;2023-11-19T04:24:46;99387.56;;;11.00;96.76
81354;BME280;70810;52.038;8.524;2023-11-19T04:27:14;99382.31;;;10.98;96.82
81354;BME280;70810;52.038;8.524;2023-11-19T04:29:42;99376.75;;;11.01;96.42
81354;BME280;70810;52.038;8.524;2023-11-19T04:32:09;99390.03;;;11.03;96.31
81354;BME280;70810;52.038;8.524;2023-11-19T04:34:35;99379.19;;;11.05;96.52
81354;BME280;70810;52.038;8.524;2023-11-19T04:37:03;99387.25;;;11.05;96.44
81354;BME280;70810;52.038;8.524;2023-11-19T04:39:30;99381.03;;;11.04;96.05
81354;BME280;70810;52.038;8.524;2023-11-19T04:41:57;99385.03;;;11.11;94.75
81354;BME280;70810;52.038;8.524;2023-11-19T04:44:24;99379.00;;;11.08;95.45
81354;BME280;70810;52.038;8.524;2023-11-19T04:46:53;99387.63;;;11.13;94.68
81354;BME280;70810;52.038;8.524;2023-11-19T04:49:19;99370.47;;;11.15;94.52
81354;BME280;70810;52.038;8.524;2023-11-19T04:51:46;99367.50;;;11.06;94.55
81354;BME280;70810;52.038;8.524;2023-11-19T04:54:14;99360.09;;;10.96;94.79
81354;BME280;70810;52.038;8.524;2023-11-19T04:56:40;99367.81;;;11.01;94.59
81354;BME280;70810;52.038;8.524;2023-11-19T04:59:11;99350.09;;;10.98;93.78
81354;BME280;70810;52.038;8.524;2023-11-19T05:01:38;99351.72;;;11.01;93.82
81354;BME280;70810;52.038;8.524;2023-11-19T05:04:07;99346.16;;;11.04;93.16
81354;BME280;70810;52.038;8.524;2023-11-19T05:06:34;99345.03;;;10.94;93.09
81354;BME280;70810;52.038;8.524;2023-11-19T05:09:01;99343.09;;;10.96;92.91
81354;BME280;70810;52.038;8.524;2023-11-19T05:11:30;99343.41;;;10.91;92.88
81354;BME280;70810;52.038;8.524;2023-11-19T05:13:57;99350.50;;;10.92;92.68
81354;BME280;70810;52.038;8.524;2023-11-19T05:16:23;99371.16;;;11.05;92.49
81354;BME280;70810;52.038;8.524;2023-11-19T05:18:50;99364.66;;;10.94;92.53
81354;BME280;70810;52.038;8.524;2023-11-19T05:21:18;99380.00;;;10.92;92.78
81354;BME280;70810;52.038;8.524;2023-11-19T05:23:45;99376.38;;;10.93;92.11
81354;BME280;70810;52.038;8.524;2023-11-19T05:26:18;99380.19;;;10.89;91.85
81354;BME280;70810;52.038;8.524;2023-11-19T05:28:45;99379.72;;;10.82;92.15
81354;BME280;70810;52.038;8.524;2023-11-19T05:31:12;99398.59;;;10.81;91.99
81354;BME280;70810;52.038;8.524;2023-11-19T05:33:39;99381.66;;;10.80;92.03
81354;BME280;70810;52.038;8.524;2023-11-19T05:36:06;99387.22;;;10.77;91.61
81354;BME280;70810;52.038;8.524;2023-11-19T05:38:35;99382.63;;;10.79;91.22
81354;BME280;70810;52.038;8.524;2023-11-19T05:41:02;99395.25;;;10.77;91.42
81354;BME280;70810;52.038;8.524;2023-11-19T05:43:30;99383.00;;;10.73;91.41
81354;BME280;70810;52.038;8.524;2023-11-19T05:45:57;99377.38;;;10.78;90.97
81354;BME280;70810;52.038;8.524;2023-11-19T05:48:26;99377.84;;;10.70;90.98
81354;BME280;70810;52.038;8.524;2023-11-19T05:50:52;99374.59;;;10.65;90.57
81354;BME280;70810;52.038;8.524;2023-11-19T05:53:20;99377.47;;;10.62;91.00
81354;BME280;70810;52.038;8.524;2023-11-19T05:55:48;99384.75;;;10.60;90.83
81354;BME280;70810;52.038;8.524;2023-11-19T05:58:23;99376.59;;;10.61;90.43
81354;BME280;70810;52.038;8.524;2023-11-19T06:00:51;99376.91;;;10.71;89.49
81354;BME280;70810;52.038;8.524;2023-11-19T06:03:17;99381.38;;;10.71;89.46
81354;BME280;70810;52.038;8.524;2023-11-19T06:05:44;99384.63;;;10.76;89.30
81354;BME280;70810;52.038;8.524;2023-11-19T06:08:12;99378.13;;;10.80;88.86
81354;BME280;70810;52.038;8.524;2023-11-19T06:10:40;99379.25;;;10.76;88.69
81354;BME280;70810;52.038;8.524;2023-11-19T06:13:08;99381.78;;;10.64;89.41
81354;BME280;70810;52.038;8.524;2023-11-19T06:15:36;99390.13;;;10.60;89.09
81354;BME280;70810;52.038;8.524;2023-11-19T06:18:04;99381.31;;;10.58;88.88
81354;BME280;70810;52.038;8.524;2023-11-19T06:20:31;99390.31;;;10.57;88.67
81354;BME280;70810;52.038;8.524;2023-11-19T06:22:57;99404.13;;;10.51;89.03
81354;BME280;70810;52.038;8.524;2023-11-19T06:25:24;99391.66;;;10.50;88.63
81354;BME280;70810;52.038;8.524;2023-11-19T06:27:51;99393.47;;;10.49;88.72
81354;BME280;70810;52.038;8.524;2023-11-19T06:30:20;99382.94;;;10.46;88.63
81354;BME280;70810;52.038;8.524;2023-11-19T06:32:47;99377.84;;;10.41;88.11
81354;BME280;70810;52.038;8.524;2023-11-19T06:35:14;99396.72;;;10.40;88.34
81354;BME280;70810;52.038;8.524;2023-11-19T06:37:41;99396.06;;;10.36;88.56
81354;BME280;70810;52.038;8.524;2023-11-19T06:40:09;99394.63;;;10.45;87.40
81354;BME280;70810;52.038;8.524;2023-11-19T06:42:37;99390.72;;;10.51;87.46
81354;BME280;70810;52.038;8.524;2023-11-19T06:45:05;99401.44;;;10.51;87.04
81354;BME280;70810;52.038;8.524;2023-11-19T06:47:34;99411.09;;;10.53;87.02
81354;BME280;70810;52.038;8.524;2023-11-19T06:50:01;99405.91;;;10.50;87.01
81354;BME280;70810;52.038;8.524;2023-11-19T06:52:30;99415.59;;;10.53;86.09
81354;BME280;70810;52.038;8.524;2023-11-19T06:54:57;99415.03;;;10.48;86.08
81354;BME280;70810;52.038;8.524;2023-11-19T06:57:24;99420.13;;;10.52;86.02
81354;BME280;70810;52.038;8.524;2023-11-19T06:59:51;99407.25;;;10.43;85.09
81354;BME280;70810;52.038;8.524;2023-11-19T07:02:18;99433.03;;;10.45;86.79
81354;BME280;70810;52.038;8.524;2023-11-19T07:04:46;99433.41;;;10.39;86.51
81354;BME280;70810;52.038;8.524;2023-11-19T07:07:13;99435.59;;;10.47;85.76
81354;BME280;70810;52.038;8.524;2023-11-19T07:09:41;99429.28;;;10.48;86.03
81354;BME280;70810;52.038;8.524;2023-11-19T07:12:08;99431.03;;;10.49;85.94
81354;BME280;70810;52.038;8.524;2023-11-19T07:14:35;99435.00;;;10.42;86.41
81354;BME280;70810;52.038;8.524;2023-11-19T07:17:02;99428.53;;;10.46;86.36
81354;BME280;70810;52.038;8.524;2023-11-19T07:19:29;99433.31;;;10.55;86.34
81354;BME280;70810;52.038;8.524;2023-11-19T07:21:57;99429.69;;;10.56;85.83
81354;BME280;70810;52.038;8.524;2023-11-19T07:24:24;99429.75;;;10.55;86.41
81354;BME280;70810;52.038;8.524;2023-11-19T07:26:53;99440.03;;;10.62;85.52
81354;BME280;70810;52.038;8.524;2023-11-19T07:29:23;99434.75;;;10.61;85.83
81354;BME280;70810;52.038;8.524;2023-11-19T07:31:50;99426.13;;;10.56;85.32
81354;BME280;70810;52.038;8.524;2023-11-19T07:34:17;99447.84;;;10.66;84.82
81354;BME280;70810;52.038;8.524;2023-11-19T07:36:45;99440.03;;;10.62;84.85
81354;BME280;70810;52.038;8.524;2023-11-19T07:39:13;99442.97;;;10.72;84.01
81354;BME280;70810;52.038;8.524;2023-11-19T07:41:40;99453.88;;;10.69;83.97
81354;BME280;70810;52.038;8.524;2023-11-19T07:44:07;99453.88;;;10.69;83.84
81354;BME280;70810;52.038;8.524;2023-11-19T07:46:33;99457.91;;;10.62;84.40
81354;BME280;70810;52.038;8.524;2023-11-19T07:49:00;99450.44;;;10.67;83.90
81354;BME280;70810;52.038;8.524;2023-11-19T07:51:28;99449.88;;;10.62;83.73
81354;BME280;70810;52.038;8.524;2023-11-19T07:53:55;99449.59;;;10.67;83.26
81354;BME280;70810;52.038;8.524;2023-11-19T07:56:23;99473.63;;;10.68;83.60
81354;BME280;70810;52.038;8.524;2023-11-19T07:58:50;99456.22;;;10.61;84.45
81354;BME280;70810;52.038;8.524;2023-11-19T08:01:17;99472.50;;;10.58;85.31
81354;BME280;70810;52.038;8.524;2023-11-19T08:03:44;99473.53;;;10.55;85.95
81354;BME280;70810;52.038;8.524;2023-11-19T08:06:11;99480.81;;;10.53;86.61
81354;BME280;70810;52.038;8.524;2023-11-19T08:08:38;99475.44;;;10.53;85.60
81354;BME280;70810;52.038;8.524;2023-11-19T08:11:05;99463.69;;;10.56;85.17
81354;BME280;70810;52.038;8.524;2023-11-19T08:13:34;99481.47;;;10.57;84.52
81354;BME280;70810;52.038;8.524;2023-11-19T08:16:00;99473.16;;;10.61;84.05
81354;BME280;70810;52.038;8.524;2023-11-19T08:18:27;99483.22;;;10.72;84.21
81354;BME280;70810;52.038;8.524;2023-11-19T08:20:54;99485.53;;;10.78;83.41
81354;BME280;70810;52.038;8.524;2023-11-19T08:23:23;99502.75;;;10.89;82.91
81354;BME280;70810;52.038;8.524;2023-11-19T08:25:51;99502.75;;;10.89;83.16
81354;BME280;70810;52.038;8.524;2023-11-19T08:28:17;99497.41;;;10.89;82.27
81354;BME280;70810;52.038;8.524;2023-11-19T08:30:46;99515.50;;;10.99;82.32
81354;BME280;70810;52.038;8.524;2023-11-19T08:33:13;99499.72;;;10.95;82.20
81354;BME280;70810;52.038;8.524;2023-11-19T08:35:40;99499.22;;;11.02;81.89
81354;BME280;70810;52.038;8.524;2023-11-19T08:38:07;99502.19;;;11.12;81.03
81354;BME280;70810;52.038;8.524;2023-11-19T08:40:34;99504.47;;;11.18;80.80
81354;BME280;70810;52.038;8.524;2023-11-19T08:43:01;99502.25;;;11.25;80.47
81354;BME280;70810;52.038;8.524;2023-11-19T08:45:27;99508.31;;;11.14;81.04
81354;BME280;70810;52.038;8.524;2023-11-19T08:47:56;99499.97;;;11.05;81.73
81354;BME280;70810;52.038;8.524;2023-11-19T08:50:23;99499.03;;;10.91;82.38
81354;BME280;70810;52.038;8.524;2023-11-19T08:52:50;99498.25;;;10.89;82.75
81354;BME280;70810;52.038;8.524;2023-11-19T08:55:17;99512.16;;;10.81;82.96
81354;BME280;70810;52.038;8.524;2023-11-19T08:57:44;99500.09;;;10.74;82.86
81354;BME280;70810;52.038;8.524;2023-11-19T09:00:12;99519.31;;;10.81;82.48
81354;BME280;70810;52.038;8.524;2023-11-19T09:02:39;99506.97;;;10.78;82.61
81354;BME280;70810;52.038;8.524;2023-11-19T09:05:08;99514.16;;;10.92;82.12
81354;BME280;70810;52.038;8.524;2023-11-19T09:07:35;99520.13;;;10.83;82.71
81354;BME280;70810;52.038;8.524;2023-11-19T09:10:02;99519.16;;;10.98;81.77
81354;BME280;70810;52.038;8.524;2023-11-19T09:12:30;99512.66;;;10.88;82.19
81354;BME280;70810;52.038;8.524;2023-11-19T09:14:57;99519.72;;;11.04;81.57
81354;BME280;70810;52.038;8.524;2023-11-19T09:17:24;99523.38;;;11.17;81.30
81354;BME280;70810;52.038;8.524;2023-11-19T09:19:51;99527.09;;;11.14;81.42
81354;BME280;70810;52.038;8.524;2023-11-19T09:22:23;99521.34;;;10.92;82.62
81354;BME280;70810;52.038;8.524;2023-11-19T09:24:50;99515.78;;;10.80;83.18
81354;BME280;70810;52.038;8.524;2023-11-19T09:27:16;99520.47;;;10.77;83.45
81354;BME280;70810;52.038;8.524;2023-11-19T09:29:43;99527.69;;;10.76;83.08
81354;BME280;70810;52.038;8.524;2023-11-19T09:32:12;99530.84;;;10.83;83.23
81354;BME280;70810;52.038;8.524;2023-11-19T09:34:40;99533.91;;;10.91;82.73
81354;BME280;70810;52.038;8.524;2023-11-19T09:37:07;99525.97;;;10.90;82.42
81354;BME280;70810;52.038;8.524;2023-11-19T09:39:36;99532.00;;;10.93;82.46
81354;BME280;70810;52.038;8.524;2023-11-19T09:42:07;99530.53;;;10.88;82.84
81354;BME280;70810;52.038;8.524;2023-11-19T09:44:35;99523.44;;;11.01;82.67
81354;BME280;70810;52.038;8.524;2023-11-19T09:47:04;99537.19;;;10.96;82.67
81354;BME280;70810;52.038;8.524;2023-11-19T09:49:32;99538.03;;;10.97;82.91
81354;BME280;70810;52.038;8.524;2023-11-19T09:51:59;99538.41;;;11.05;82.20
81354;BME280;70810;52.038;8.524;2023-11-19T09:54:26;99548.75;;;11.26;81.91
81354;BME280;70810;52.038;8.524;2023-11-19T09:56:54;99532.38;;;11.30;81.62
81354;BME280;70810;52.038;8.524;2023-11-19T09:59:25;99540.53;;;11.29;81.43
81354;BME280;70810;52.038;8.524;2023-11-19T10:02:01;99535.53;;;11.23;81.28
81354;BME280;70810;52.038;8.524;2023-11-19T10:04:35;99541.19;;;11.32;81.00
81354;BME280;70810;52.038;8.524;2023-11-19T10:07:02;99540.28;;;11.32;80.71
81354;BME280;70810;52.038;8.524;2023-11-19T10:09:29;99538.78;;;11.28;81.31
81354;BME280;70810;52.038;8.524;2023-11-19T10:11:59;99532.63;;;11.40;80.04
81354;BME280;70810;52.038;8.524;2023-11-19T10:14:30;99536.47;;;11.36;79.87
81354;BME280;70810;52.038;8.524;2023-11-19T10:17:00;99536.44;;;11.50;79.67
81354;BME280;70810;52.038;8.524;2023-11-19T10:19:29;99535.50;;;11.51;79.41
81354;BME280;70810;52.038;8.524;2023-11-19T10:21:56;99537.38;;;11.64;79.38
81354;BME280;70810;52.038;8.524;2023-11-19T10:24:33;99535.50;;;11.79;78.42
81354;BME280;70810;52.038;8.524;2023-11-19T10:27:01;99529.28;;;11.78;77.87
81354;BME280;70810;52.038;8.524;2023-11-19T10:29:31;99525.28;;;11.98;77.56
81354;BME280;70810;52.038;8.524;2023-11-19T10:32:02;99537.41;;;11.91;76.83
81354;BME280;70810;52.038;8.524;2023-11-19T10:34:33;99521.00;;;11.81;77.61
81354;BME280;70810;52.038;8.524;2023-11-19T10:37:05;99537.16;;;12.08;76.96
81354;BME280;70810;52.038;8.524;2023-11-19T10:39:51;99540.84;;;12.20;76.29
81354;BME280;70810;52.038;8.524;2023-11-19T10:42:21;99543.84;;;12.16;76.16
81354;BME280;70810;52.038;8.524;2023-11-19T10:44:48;99542.69;;;11.92;76.48
81354;BME280;70810;52.038;8.524;2023-11-19T10:47:15;99543.00;;;11.73;77.66
81354;BME280;70810;52.038;8.524;2023-11-19T10:49:43;99529.78;;;11.70;77.28
81354;BME280;70810;52.038;8.524;2023-11-19T10:52:11;99531.59;;;11.70;77.44
81354;BME280;70810;52.038;8.524;2023-11-19T10:54:44;99536.97;;;11.70;77.59
81354;BME280;70810;52.038;8.524;2023-11-19T10:57:21;99527.16;;;11.83;76.74
81354;BME280;70810;52.038;8.524;2023-11-19T10:59:50;99527.16;;;11.83;76.79
81354;BME280;70810;52.038;8.524;2023-11-19T11:02:21;99525.63;;;11.79;76.94
81354;BME280;70810;52.038;8.524;2023-11-19T11:04:50;99521.41;;;11.75;77.55
81354;BME280;70810;52.038;8.524;2023-11-19T11:07:20;99512.03;;;11.68;77.32
81354;BME280;70810;52.038;8.524;2023-11-19T11:09:49;99517.19;;;11.71;76.92
81354;BME280;70810;52.038;8.524;2023-11-19T11:12:17;99510.31;;;11.67;77.31
81354;BME280;70810;52.038;8.524;2023-11-19T11:14:52;99513.84;;;11.67;77.24
81354;BME280;70810;52.038;8.524;2023-11-19T11:17:24;99511.63;;;11.74;77.45
81354;BME280;70810;52.038;8.524;2023-11-19T11:19:52;99499.97;;;11.61;77.87
81354;BME280;70810;52.038;8.524;2023-11-19T11:22:21;99519.56;;;11.48;79.02
81354;BME280;70810;52.038;8.524;2023-11-19T11:25:23;99516.34;;;11.14;81.50
81354;BME280;70810;52.038;8.524;2023-11-19T11:28:05;99511.19;;;10.97;83.25
81354;BME280;70810;52.038;8.524;2023-11-19T11:30:49;99511.28;;;10.81;84.54
81354;BME280;70810;52.038;8.524;2023-11-19T11:33:30;99518.56;;;10.79;84.47
81354;BME280;70810;52.038;8.524;2023-11-19T11:36:08;99512.56;;;10.90;84.81
81354;BME280;70810;52.038;8.524;2023-11-19T11:38:40;99501.72;;;10.91;85.05
81354;BME280;70810;52.038;8.524;2023-11-19T11:41:18;99500.38;;;10.98;85.19
81354;BME280;70810;52.038;8.524;2023-11-19T11:43:47;99503.31;;;11.08;84.80
81354;BME280;70810;52.038;8.524;2023-11-19T11:46:54;99501.22;;;11.13;84.20
81354;BME280;70810;52.038;8.524;2023-11-19T11:49:28;99494.88;;;11.29;83.47
81354;BME280;70810;52.038;8.524;2023-11-19T11:52:06;99494.69;;;11.17;82.90
81354;BME280;70810;52.038;8.524;2023-11-19T11:54:34;99504.88;;;11.12;82.67
81354;BME280;70810;52.038;8.524;2023-11-19T11:57:02;99495.75;;;11.00;83.46
81354;BME280;70810;52.038;8.524;2023-11-19T11:59:36;99491.75;;;10.79;85.38
81354;BME280;70810;52.038;8.524;2023-11-19T12:02:08;99506.00;;;10.65;87.10
81354;BME280;70810;52.038;8.524;2023-11-19T12:04:36;99513.81;;;10.39;88.10
81354;BME280;70810;52.038;8.524;2023-11-19T12:07:04;99507.13;;;10.32;89.06
81354;BME280;70810;52.038;8.524;2023-11-19T12:09:31;99494.38;;;10.36;89.60
81354;BME280;70810;52.038;8.524;2023-11-19T12:12:07;99485.38;;;10.37;89.80
81354;BME280;70810;52.038;8.524;2023-11-19T12:15:01;99474.19;;;10.59;88.09
81354;BME280;70810;52.038;8.524;2023-11-19T12:17:51;99490.50;;;10.70;87.21
81354;BME280;70810;52.038;8.524;2023-11-19T12:20:21;99497.19;;;10.77;87.29
81354;BME280;70810;52.038;8.524;2023-11-19T12:22:50;99490.69;;;10.81;86.75
81354;BME280;70810;52.038;8.524;2023-11-19T12:25:24;99482.94;;;10.91;87.01
81354;BME280;70810;52.038;8.524;2023-11-19T12:27:52;99478.59;;;11.03;85.95
81354;BME280;70810;52.038;8.524;2023-11-19T12:30:21;99481.19;;;11.05;85.18
81354;BME280;70810;52.038;8.524;2023-11-19T12:32:50;99481.97;;;11.07;84.87
81354;BME280;70810;52.038;8.524;2023-11-19T12:35:19;99474.47;;;10.97;84.71
81354;BME280;70810;52.038;8.524;2023-11-19T12:37:47;99474.00;;;11.05;84.42
81354;BME280;70810;52.038;8.524;2023-11-19T12:40:16;99476.28;;;11.11;83.09
81354;BME280;70810;52.038;8.524;2023-11-19T12:42:44;99465.44;;;11.27;82.72
81354;BME280;70810;52.038;8.524;2023-11-19T12:45:11;99462.09;;;11.24;83.33
81354;BME280;70810;52.038;8.524;2023-11-19T12:47:39;99460.22;;;11.38;81.63
81354;BME280;70810;52.038;8.524;2023-11-19T12:50:09;99465.03;;;11.33;82.39
81354;BME280;70810;52.038;8.524;2023-11-19T12:52:36;99448.97;;;11.19;82.56
81354;BME280;70810;52.038;8.524;2023-11-19T12:55:04;99456.66;;;11.11;82.79
81354;BME280;70810;52.038;8.524;2023-11-19T12:57:39;99454.63;;;11.14;82.81
81354;BME280;70810;52.038;8.524;2023-11-19T13:00:17;99441.25;;;11.00;82.66
81354;BME280;70810;52.038;8.524;2023-11-19T13:02:47;99454.25;;;11.20;83.30
81354;BME280;70810;52.038;8.524;2023-11-19T13:05:23;99452.50;;;11.19;82.14
81354;BME280;70810;52.038;8.524;2023-11-19T13:07:58;99445.94;;;11.38;81.71
81354;BME280;70810;52.038;8.524;2023-11-19T13:10:26;99444.88;;;11.41;81.44